createdAt,value
2022-11-24T00:02:05.876Z,2.27
2022-11-24T00:07:33.152Z,2.74
2022-11-24T00:12:59.509Z,2.42
2022-11-24T00:18:24.503Z,2.35
2022-11-24T00:23:50.720Z,1.87
2022-11-24T00:29:16.125Z,2.13
2022-11-24T00:35:40.171Z,2.22
2022-11-24T00:41:04.433Z,1.38
2022-11-24T00:46:30.343Z,1.65
2022-11-24T00:51:57.179Z,1.78
2022-11-24T00:57:23.600Z,1.67
2022-11-24T01:02:50.431Z,1.78
2022-11-24T01:08:15.508Z,1.37
2022-11-24T01:13:42.511Z,1.61
2022-11-24T01:19:09.735Z,1.74
2022-11-24T01:24:35.895Z,1.97
2022-11-24T01:30:56.846Z,1.92
2022-11-24T01:36:18.627Z,1.48
2022-11-24T01:41:42.636Z,1.57
2022-11-24T01:47:06.612Z,1.62
2022-11-24T01:52:35.971Z,1.70
2022-11-24T01:58:03.436Z,1.63
2022-11-24T02:03:28.202Z,1.50
2022-11-24T02:08:53.850Z,1.56
2022-11-24T02:14:17.129Z,1.66
2022-11-24T02:19:43.914Z,1.53
2022-11-24T02:25:12.442Z,1.90
2022-11-24T02:30:40.216Z,1.64
2022-11-24T02:36:07.068Z,1.55
2022-11-24T02:41:32.949Z,1.82
2022-11-24T02:46:58.285Z,1.87
2022-11-24T02:52:25.473Z,1.87
2022-11-24T02:57:49.349Z,1.69
2022-11-24T03:03:14.688Z,1.39
2022-11-24T03:08:40.512Z,1.64
2022-11-24T03:14:08.003Z,1.48
2022-11-24T03:19:32.423Z,1.19
2022-11-24T03:24:55.920Z,1.86
2022-11-24T03:30:22.377Z,1.76
2022-11-24T03:35:46.044Z,1.55
2022-11-24T03:41:12.408Z,1.56
2022-11-24T03:46:40.217Z,1.11
2022-11-24T03:52:08.018Z,1.29
2022-11-24T03:57:34.665Z,1.36
2022-11-24T04:02:59.491Z,1.25
2022-11-24T04:08:25.427Z,1.05
2022-11-24T04:13:51.237Z,1.21
2022-11-24T04:19:19.177Z,1.43
2022-11-24T04:24:46.065Z,1.40
2022-11-24T04:30:12.344Z,1.52
2022-11-24T04:35:39.756Z,1.71
2022-11-24T04:41:05.173Z,1.48
2022-11-24T04:46:31.948Z,1.19
2022-11-24T04:51:57.890Z,1.58
2022-11-24T04:57:23.871Z,1.22
2022-11-24T05:02:49.005Z,1.48
2022-11-24T05:08:12.359Z,1.49
2022-11-24T05:13:37.718Z,1.27
2022-11-24T05:19:02.373Z,1.29
2022-11-24T05:24:29.564Z,1.32
2022-11-24T05:29:53.686Z,1.55
2022-11-24T05:35:18.012Z,1.25
2022-11-24T05:40:42.752Z,1.48
2022-11-24T05:46:07.897Z,1.16
2022-11-24T05:51:31.677Z,1.40
2022-11-24T05:56:56.455Z,1.44
2022-11-24T06:02:19.424Z,1.34
2022-11-24T06:07:45.121Z,1.66
2022-11-24T06:13:18.652Z,1.28
2022-11-24T06:18:44.949Z,1.39
2022-11-24T06:24:22.270Z,1.28
2022-11-24T06:29:47.557Z,1.42
2022-11-24T06:35:14.473Z,1.66
2022-11-24T06:40:40.548Z,1.39
2022-11-24T06:46:07.262Z,1.61
2022-11-24T06:51:33.520Z,1.39
2022-11-24T06:56:59.321Z,1.68
2022-11-24T07:02:24.381Z,1.36
2022-11-24T07:07:52.549Z,1.58
2022-11-24T07:13:18.581Z,1.44
2022-11-24T07:18:43.204Z,1.56
2022-11-24T07:24:09.518Z,1.54
2022-11-24T07:29:33.961Z,1.78
2022-11-24T07:35:00.115Z,1.81
2022-11-24T07:40:28.869Z,1.91
2022-11-24T07:45:50.317Z,2.13
2022-11-24T07:51:15.771Z,1.77
2022-11-24T07:56:37.159Z,2.33
2022-11-24T08:02:01.736Z,2.03
2022-11-24T08:07:27.612Z,2.14
2022-11-24T08:12:54.168Z,1.57
2022-11-24T08:18:23.280Z,1.45
2022-11-24T08:23:51.476Z,1.76
2022-11-24T08:29:13.534Z,1.92
2022-11-24T08:34:34.915Z,1.74
2022-11-24T08:40:01.285Z,1.82
2022-11-24T08:45:30.437Z,1.52
2022-11-24T08:50:53.842Z,1.70
2022-11-24T08:56:17.065Z,1.78
2022-11-24T09:01:39.171Z,1.61
2022-11-24T09:07:04.134Z,1.62
2022-11-24T09:12:32.017Z,2.00
2022-11-24T09:17:59.552Z,1.56
2022-11-24T09:23:24.309Z,1.58
2022-11-24T09:28:49.952Z,1.67
2022-11-24T09:34:14.210Z,1.70
2022-11-24T09:39:40.090Z,1.59
2022-11-24T09:45:01.464Z,1.70
2022-11-24T09:50:38.930Z,0.81
2022-11-24T09:56:02.012Z,1.00
2022-11-24T10:01:30.458Z,1.01
2022-11-24T10:06:58.098Z,0.85
2022-11-24T10:12:24.665Z,1.42
2022-11-24T10:17:56.094Z,0.87
2022-11-24T10:23:27.709Z,1.21
2022-11-24T10:28:57.760Z,0.86
2022-11-24T10:34:27.493Z,1.06
2022-11-24T10:39:59.727Z,1.39
2022-11-24T10:45:19.288Z,1.19
2022-11-24T10:50:43.419Z,1.24
2022-11-24T10:56:08.445Z,0.85
2022-11-24T11:01:35.943Z,1.38
2022-11-24T11:07:01.979Z,1.00
2022-11-24T11:12:44.634Z,0.94
2022-11-24T11:17:59.551Z,0.90
2022-11-24T11:23:22.977Z,1.22
2022-11-24T11:28:49.101Z,1.02
2022-11-24T11:34:25.040Z,0.67
2022-11-24T11:39:48.501Z,0.45
2022-11-24T11:45:10.010Z,0.86
2022-11-24T11:51:06.674Z,1.03
2022-11-24T11:56:06.023Z,0.59
2022-11-24T12:01:33.016Z,0.79
2022-11-24T12:07:15.225Z,1.02
2022-11-24T12:12:46.652Z,0.90
2022-11-24T12:18:33.038Z,0.69
2022-11-24T12:23:44.259Z,0.66
2022-11-24T12:29:08.267Z,1.36
2022-11-24T12:35:30.451Z,0.92
2022-11-24T12:41:06.505Z,0.92
2022-11-24T12:46:36.899Z,0.73
2022-11-24T12:52:04.625Z,0.93
2022-11-24T12:57:32.732Z,0.79
2022-11-24T13:03:00.761Z,0.60
2022-11-24T13:08:33.655Z,0.92
2022-11-24T13:14:03.661Z,0.61
2022-11-24T13:19:43.518Z,0.88
2022-11-24T13:25:10.788Z,0.96
2022-11-24T13:30:38.050Z,0.90
2022-11-24T13:36:26.248Z,0.77
2022-11-24T13:42:10.482Z,0.94
2022-11-24T13:47:39.677Z,0.97
2022-11-24T13:53:06.567Z,0.81
2022-11-24T13:58:30.556Z,0.94
2022-11-24T14:04:27.976Z,0.95
2022-11-24T14:09:26.644Z,1.23
2022-11-24T14:14:49.603Z,0.79
2022-11-24T14:20:12.988Z,0.88
2022-11-24T14:25:39.479Z,0.69
2022-11-24T14:31:04.237Z,1.15
2022-11-24T14:36:29.790Z,0.74
2022-11-24T14:41:56.261Z,1.25
2022-11-24T14:47:18.996Z,1.05
2022-11-24T14:52:45.748Z,1.01
2022-11-24T14:58:13.966Z,0.98
2022-11-24T15:03:44.174Z,1.18
2022-11-24T15:09:27.430Z,4.08
2022-11-24T15:14:52.335Z,1.10
2022-11-24T15:20:21.371Z,1.05
2022-11-24T15:25:47.406Z,1.32
2022-11-24T15:31:14.499Z,0.88
2022-11-24T15:36:40.487Z,1.38
2022-11-24T15:42:04.565Z,0.97
2022-11-24T15:47:32.273Z,0.97
2022-11-24T15:52:59.350Z,1.10
2022-11-24T15:58:26.244Z,1.22
2022-11-24T16:03:51.587Z,1.62
2022-11-24T16:09:16.453Z,3.40
2022-11-24T16:14:40.991Z,3.42
2022-11-24T16:20:04.513Z,3.19
2022-11-24T16:25:32.511Z,2.63
2022-11-24T16:30:59.459Z,2.80
2022-11-24T16:36:27.248Z,2.26
2022-11-24T16:41:55.023Z,2.77
2022-11-24T16:47:22.019Z,3.95
2022-11-24T17:07:03.934Z,2.39
2022-11-24T17:12:25.055Z,2.54
2022-11-24T17:18:22.452Z,3.45
2022-11-24T17:23:15.481Z,2.74
2022-11-24T17:28:41.638Z,2.45
2022-11-24T17:34:08.712Z,2.26
2022-11-24T17:39:35.522Z,2.68
2022-11-24T17:45:01.185Z,2.77
2022-11-24T17:50:27.192Z,3.16
2022-11-24T17:55:53.937Z,2.72
2022-11-24T18:01:16.387Z,2.81
2022-11-24T18:06:43.694Z,2.97
2022-11-24T18:12:10.964Z,3.15
2022-11-24T18:17:36.897Z,3.06
2022-11-24T18:23:06.084Z,3.65
2022-11-24T18:28:23.228Z,3.37
2022-11-24T18:33:51.421Z,3.90
2022-11-24T18:39:17.622Z,3.31
2022-11-24T18:44:45.412Z,4.73
2022-11-24T18:50:10.043Z,5.01
2022-11-24T18:55:33.751Z,5.43
2022-11-24T19:00:55.798Z,6.00
2022-11-24T19:06:24.868Z,7.22
2022-11-24T19:11:46.083Z,7.07
2022-11-24T19:17:07.753Z,6.98
2022-11-24T19:22:32.188Z,5.35
2022-11-24T19:27:55.267Z,5.75
2022-11-24T19:33:19.798Z,5.08
2022-11-24T19:38:46.268Z,5.14
2022-11-24T19:44:08.332Z,4.57
2022-11-24T19:49:35.786Z,4.41
2022-11-24T19:55:01.730Z,4.73
2022-11-24T20:00:32.099Z,4.52
2022-11-24T20:05:55.951Z,3.60
2022-11-24T20:11:21.284Z,4.14
2022-11-24T20:16:42.490Z,4.30
2022-11-24T20:22:07.362Z,3.53
2022-11-24T20:27:31.688Z,3.23
2022-11-24T20:32:55.983Z,3.76
2022-11-24T20:38:20.084Z,3.79
2022-11-24T20:43:46.914Z,3.79
2022-11-24T20:49:13.732Z,3.23
2022-11-24T20:54:40.862Z,5.08
2022-11-24T21:00:02.522Z,4.09
2022-11-24T21:05:28.749Z,3.53
2022-11-24T21:10:54.795Z,4.67
2022-11-24T21:16:19.800Z,4.64
2022-11-24T21:21:45.764Z,3.75
2022-11-24T21:27:09.347Z,4.67
2022-11-24T21:32:38.017Z,5.03
2022-11-24T21:38:04.198Z,6.33
2022-11-24T21:43:32.872Z,5.58
2022-11-24T21:48:58.090Z,4.19
2022-11-24T21:54:25.010Z,4.28
2022-11-24T21:59:53.103Z,4.46
2022-11-24T22:05:19.432Z,4.90
2022-11-24T22:10:40.730Z,4.72
2022-11-24T22:16:07.378Z,4.60
2022-11-24T22:21:32.299Z,3.86
2022-11-24T22:27:00.301Z,3.76
2022-11-24T22:32:26.596Z,3.81
2022-11-24T22:37:53.945Z,3.41
2022-11-24T22:43:23.124Z,3.56
2022-11-24T22:48:45.361Z,3.34
2022-11-24T22:54:12.227Z,3.73
2022-11-24T22:59:38.087Z,3.60
2022-11-24T23:05:05.649Z,3.28
2022-11-24T23:10:31.819Z,3.31
2022-11-24T23:15:56.539Z,3.48
2022-11-24T23:21:18.880Z,2.97
2022-11-24T23:26:41.897Z,3.43
2022-11-24T23:32:07.885Z,3.03
2022-11-24T23:37:52.366Z,3.47
2022-11-24T23:42:59.612Z,3.68
2022-11-24T23:48:27.216Z,2.94
2022-11-24T23:53:54.440Z,2.92
2022-11-24T23:59:17.367Z,3.68
